Date,TemperatureHighF,TemperatureAvgF,TemperatureLowF,DewpointHighF,DewpointAvgF,DewpointLowF,HumidityHigh,HumidityAvg,HumidityLow,PressureMaxIn,PressureMinIn,WindSpeedMaxMPH,WindSpeedAvgMPH,GustSpeedMaxMPH,PrecipitationSumIn
2014-1-1,37.4,33.2,28.8,13.0,9.0,3.9,40,36,30,30.12,29.94,10,3,10,0.00
2014-1-2,46.0,38.1,28.8,16.4,9.4,3.1,36,30,27,30.06,29.65,15,4,17,0.00
2014-1-3,46.9,33.8,21.7,26.7,15.0,6.2,80,50,28,29.82,29.50,17,5,17,0.00
2014-1-4,23.4,14.9,2.3,16.6,2.9,-12.9,79,59,48,30.09,29.79,12,1,12,0.00
2014-1-5,2.3,-2.0,-5.8,-12.9,-16.9,-20.4,48,48,48,30.38,30.09,9,2,9,0.00
2014-1-6,22.5,9.0,-4.0,15.9,-5.0,-18.9,76,52,44,30.24,29.94,5,0,6,0.00
2014-1-7,34.2,28.0,19.0,21.8,16.7,8.9,80,63,43,29.94,29.85,6,1,6,0.00
2014-1-8,39.7,33.8,27.3,21.6,16.3,10.1,73,50,33,29.85,29.70,18,3,18,0.00
2014-1-9,38.5,33.3,28.2,19.6,9.7,2.2,58,37,31,29.70,29.59,13,6,13,0.00
2014-1-10,38.3,33.8,26.8,13.8,10.0,2.5,57,37,31,29.82,29.56,32,5,32,0.00
2014-1-11,50.2,39.0,29.1,26.7,16.1,8.7,80,40,28,29.79,29.35,23,6,23,0.04
2014-1-12,36.0,32.9,30.9,14.5,8.2,4.7,49,35,31,29.82,29.41,15,5,16,0.00
2014-1-13,44.1,37.8,27.0,24.2,15.5,10.5,84,44,28,30.12,29.76,20,4,22,0.00
2014-1-14,44.1,37.2,25.9,29.5,16.2,10.0,88,44,29,30.29,30.12,13,3,13,0.16
2014-1-15,46.0,41.7,33.4,10.7,2.6,-1.6,31,19,15,30.21,30.09,15,4,15,0.16
2014-1-16,45.5,38.3,32.5,8.7,2.7,-4.1,30,22,17,30.27,30.15,9,2,10,0.16
2014-1-17,47.7,38.9,31.1,7.4,1.7,-6.2,32,21,16,30.15,30.03,8,2,8,0.00
2014-1-18,47.3,36.1,25.2,13.8,8.6,2.9,45,32,17,30.09,29.91,12,2,12,0.00
2014-1-19,50.2,42.8,30.9,10.6,3.0,-3.8,36,19,14,30.12,29.85,14,3,14,0.00
2014-1-20,38.8,29.2,22.1,10.6,6.9,3.3,49,39,30,30.24,30.12,9,2,9,0.00
2014-1-21,47.3,35.1,26.8,15.0,8.0,1.5,43,32,27,30.21,30.09,8,2,8,0.00
2014-1-22,31.8,29.1,26.2,24.6,17.8,7.5,80,65,40,30.24,30.00,6,1,6,0.00
2014-1-23,31.8,25.1,14.5,20.7,14.6,6.6,82,65,45,30.27,30.18,6,2,6,0.04
2014-1-24,44.2,34.7,26.8,16.0,13.8,10.4,59,42,30,30.27,30.18,9,2,9,0.04
2014-1-25,49.1,38.3,29.8,16.8,13.7,2.3,53,37,21,30.18,29.97,10,2,10,0.04
2014-1-26,39.9,27.6,15.6,28.6,4.3,-4.7,87,41,16,30.15,29.91,12,2,12,0.04
2014-1-27,22.8,14.9,8.1,1.7,-5.3,-11.7,53,40,22,30.12,30.03,9,3,9,0.00
2014-1-28,36.1,21.0,5.9,8.4,-6.2,-13.7,44,31,14,30.12,29.85,8,1,8,0.00
2014-1-29,39.9,34.3,21.2,24.4,14.4,7.1,68,44,34,29.85,29.44,13,3,13,0.00
2014-1-30,21.0,9.6,5.5,13.6,1.3,-2.7,73,68,68,29.79,29.56,8,2,8,0.00
2014-1-31,25.9,11.3,3.4,7.0,0.0,-4.8,68,61,44,29.82,29.65,8,1,8,0.00
2014-2-1,16.7,10.5,3.9,1.4,-4.6,-11.8,57,50,44,29.94,29.88,8,2,8,0.00
2014-2-2,19.4,12.8,6.1,2.0,-2.7,-9.8,55,49,44,29.88,29.76,8,1,8,0.00
2014-2-3,12.2,5.6,-4.4,-2.9,-9.0,-18.3,50,50,50,30.00,29.76,9,2,9,0.00
2014-2-4,-3.5,-8.3,-17.3,-17.4,-21.9,-30.4,50,50,50,30.21,30.00,10,2,10,0.00
2014-2-5,-9.0,-17.1,-22.7,-22.6,-30.1,-35.4,50,50,50,30.27,30.12,8,3,8,0.00
2014-2-6,-12.8,-21.5,-27.2,-26.2,-34.2,-39.6,50,50,50,30.12,29.73,6,2,6,0.00
2014-2-7,4.3,-7.5,-19.5,-10.4,-21.2,-32.4,50,50,50,29.73,29.59,6,1,6,0.00
2014-2-8,7.7,1.6,-2.4,-7.1,-12.7,-16.4,50,50,50,29.97,29.62,8,1,8,0.00
2014-2-9,10.9,3.5,-1.3,-4.0,-11.0,-15.4,50,50,50,29.88,29.79,6,1,6,0.00
2014-2-10,36.3,20.2,5.0,15.1,3.1,-9.6,67,47,40,29.94,29.79,12,2,12,0.00
2014-2-11,39.9,33.8,27.7,22.1,8.3,-5.3,61,34,23,29.91,29.67,15,6,15,0.00
2014-2-12,46.6,37.8,28.2,21.6,11.9,-4.1,45,34,23,29.85,29.50,24,6,26,0.31
2014-2-13,43.3,36.3,29.5,30.1,14.3,4.7,78,42,28,29.85,29.56,16,6,16,0.31
2014-2-14,39.6,33.9,28.8,29.2,11.6,0.3,78,40,25,29.88,29.62,22,5,22,0.31
2014-2-15,44.4,36.6,27.0,22.8,12.7,6.2,56,37,25,29.88,29.56,11,3,11,0.04
2014-2-16,46.8,36.1,29.1,27.6,10.6,-2.7,77,36,22,29.85,29.44,19,5,19,0.00
2014-2-17,45.1,36.9,29.7,26.6,3.4,-1.8,78,25,17,29.85,29.56,20,7,20,0.00
2014-2-18,42.3,34.8,27.3,11.5,6.4,2.5,38,30,23,29.85,29.53,15,4,15,0.00
2014-2-19,32.2,27.0,21.7,14.5,4.4,-2.8,70,39,25,29.76,29.53,14,5,14,0.00
2014-2-20,32.7,28.2,20.7,19.0,7.4,-1.2,76,41,33,29.88,29.67,15,6,16,0.00
2014-2-21,33.1,24.8,15.3,20.5,10.4,4.5,82,55,32,29.88,29.70,10,3,14,0.00
2014-2-22,21.2,14.9,10.4,8.0,2.1,-2.0,72,57,38,29.91,29.85,8,1,8,0.00
2014-2-23,11.8,6.6,0.5,3.6,-1.4,-7.3,69,69,69,29.97,29.88,7,1,7,0.00
2014-2-24,8.8,3.4,-1.3,0.7,-4.4,-9.0,69,69,69,30.06,29.88,5,1,5,0.00
2014-2-25,14.9,8.8,-0.2,5.4,-6.3,-21.3,69,52,31,30.21,30.00,7,1,7,0.00
2014-2-26,13.8,4.6,-3.8,-8.8,-17.0,-24.6,35,35,35,30.03,29.76,6,1,6,0.00
2014-2-27,24.4,14.6,6.3,18.4,-2.0,-15.5,81,49,35,29.76,29.47,8,1,8,0.00
2014-2-28,16.7,3.9,-7.8,8.9,-5.2,-16.4,71,65,64,29.91,29.70,11,4,11,0.00
2014-3-1,-8.0,-12.3,-17.1,-16.6,-20.7,-25.4,65,65,65,29.91,29.85,9,2,9,0.00
2014-3-2,5.9,-5.1,-16.1,-3.5,-13.8,-24.3,65,65,65,29.88,29.70,8,1,8,0.00
2014-3-3,46.2,30.7,4.1,32.7,14.3,-10.9,97,53,32,29.76,29.65,16,4,16,0.00
2014-3-4,45.7,39.3,32.0,25.6,14.5,8.8,69,37,27,29.88,29.73,12,4,12,0.00
2014-3-5,52.3,43.6,35.8,22.3,16.0,11.0,45,33,21,29.88,29.67,21,7,21,0.43
2014-3-6,47.7,41.9,32.4,34.0,20.7,14.9,83,44,28,29.82,29.56,15,4,15,0.08
2014-3-7,44.1,38.2,33.6,29.7,17.4,13.1,83,44,31,30.09,29.82,9,3,9,0.00
2014-3-8,53.2,41.2,28.6,17.4,10.0,0.2,47,30,13,30.12,29.88,15,4,15,0.00
2014-3-9,56.1,50.6,41.0,25.5,14.1,-0.1,53,24,14,29.91,29.79,23,8,27,0.00
2014-3-10,42.4,37.8,32.5,37.7,31.8,20.1,95,80,49,29.88,29.65,8,2,8,0.43
2014-3-11,40.5,33.6,26.2,30.9,21.4,10.9,95,65,32,30.24,29.88,11,2,11,0.43
2014-3-12,48.0,36.0,26.8,12.8,8.9,3.8,51,33,17,30.21,29.97,8,3,9,0.20
2014-3-13,47.1,38.4,26.6,13.7,9.4,4.7,51,31,19,29.97,29.82,13,3,13,0.00
2014-3-14,47.7,40.0,30.4,21.7,10.3,-0.4,51,30,21,29.88,29.76,14,4,14,0.00
2014-3-15,46.0,39.0,33.4,13.0,9.4,2.5,40,30,17,30.15,29.85,13,4,13,0.00
2014-3-16,56.1,46.3,41.2,10.1,5.8,2.8,26,19,12,30.09,29.91,13,6,14,0.00
2014-3-19,46.0,39.4,30.0,7.1,2.9,-1.7,35,22,15,29.88,29.79,11,4,11,0.16
2014-3-20,35.1,31.0,25.3,24.4,5.5,-4.4,80,35,20,30.03,29.73,15,4,15,0.00
2014-3-21,25.2,19.5,13.6,16.9,5.2,0.4,77,54,40,30.15,30.03,10,3,10,0.00
2014-3-22,31.5,20.6,5.5,7.8,3.4,-4.3,63,48,33,30.15,29.97,7,2,7,0.04
2014-3-23,39.6,27.4,17.8,20.2,8.3,-1.2,70,46,19,30.12,29.91,14,2,14,0.00
2014-3-24,30.0,22.3,17.8,13.1,8.3,4.8,73,55,39,30.18,30.09,7,2,8,0.00
2014-3-25,46.9,30.2,15.1,17.0,11.4,6.0,76,48,29,30.09,29.53,8,1,8,0.00
2014-3-26,46.9,39.4,28.2,19.3,13.9,8.8,66,36,27,29.56,29.44,9,2,9,0.00
2014-3-27,37.4,29.9,24.4,26.5,20.5,15.2,84,69,48,29.76,29.53,8,2,8,0.00
2014-3-28,49.6,37.4,24.4,25.6,14.6,1.2,89,48,14,29.88,29.73,14,3,14,0.04
2014-3-29,46.2,41.1,34.2,33.4,20.7,13.4,81,47,28,29.73,29.62,17,3,17,0.04
2014-3-30,43.0,33.7,28.6,24.9,19.8,13.9,86,59,32,29.88,29.65,11,2,11,0.00
2014-3-31,41.2,33.0,25.0,27.3,19.1,11.8,87,60,32,29.91,29.79,8,1,8,0.08
2014-4-1,41.0,32.0,24.6,22.1,17.9,15.4,74,57,39,29.79,29.67,10,2,10,0.00
2014-4-2,46.9,35.9,29.7,21.3,15.5,4.5,69,46,20,29.85,29.67,8,1,8,0.00
2014-4-3,47.8,37.8,27.9,17.2,12.4,0.6,53,37,18,29.91,29.82,8,3,8,0.00
2014-4-4,52.5,41.7,32.9,27.0,9.8,-0.7,71,29,16,29.85,29.70,19,6,19,0.00
2014-4-5,48.9,39.0,31.1,20.3,13.9,7.8,61,37,22,29.85,29.76,10,2,10,0.00
2014-4-6,50.0,41.7,35.6,20.4,13.9,9.0,41,32,24,30.06,29.79,14,4,14,0.00
2014-4-7,58.1,47.8,37.9,21.6,17.4,12.9,40,30,19,30.12,30.06,11,3,12,0.00
2014-4-8,67.5,52.5,39.7,24.7,16.1,3.7,42,25,10,30.09,29.85,11,4,11,0.00
2014-4-9,58.8,51.5,39.7,26.4,13.9,-0.2,39,23,13,29.91,29.76,17,4,17,0.00
2014-4-10,56.7,44.4,32.5,12.2,5.8,-1.1,40,22,12,29.94,29.88,11,3,11,0.00
2014-4-11,61.2,48.7,36.3,17.2,8.6,2.5,30,21,11,29.94,29.73,13,3,13,0.00
2014-4-12,44.4,31.5,21.9,32.4,18.6,8.9,88,60,30,30.06,29.79,10,3,10,0.00
2014-4-13,37.2,27.1,19.2,15.4,5.1,-8.4,78,45,14,30.21,30.06,10,3,10,0.08
2014-4-14,54.9,37.7,19.8,6.3,-0.0,-5.6,40,23,10,30.21,29.88,10,3,11,0.00
2014-4-15,48.6,43.8,36.1,21.9,8.3,-3.8,53,25,11,29.88,29.67,13,4,13,0.00
2014-4-16,47.3,39.3,32.5,15.8,13.4,9.3,44,35,22,29.91,29.85,9,2,10,0.00
2014-4-17,59.5,47.8,35.8,23.3,16.6,11.3,42,29,17,29.91,29.67,17,3,17,0.00
2014-4-18,49.6,42.8,34.5,38.5,18.5,-4.7,85,44,14,29.91,29.67,15,3,15,0.04
2014-4-19,62.8,46.5,28.4,7.8,1.6,-6.9,26,16,11,29.91,29.76,11,3,11,0.00
2014-4-20,57.2,48.1,37.9,20.1,7.9,-1.6,43,21,12,30.12,29.79,13,3,13,0.00
2014-4-21,67.3,51.7,34.3,14.1,6.4,-2.6,31,17,10,30.12,29.85,10,3,10,0.00
2014-4-22,68.7,49.2,37.4,39.0,17.0,-0.3,85,37,12,29.85,29.47,12,3,12,0.39
2014-4-23,48.6,38.4,33.4,29.2,14.9,6.4,74,39,19,29.79,29.62,15,4,15,0.31
2014-4-24,52.3,41.7,33.6,38.4,25.2,16.6,85,55,27,29.79,29.70,15,3,15,0.31
2014-4-25,55.6,42.4,32.2,38.7,26.0,18.7,90,55,28,29.79,29.59,9,3,9,0.43
2014-4-26,41.5,37.2,33.8,37.7,33.1,29.0,95,85,66,29.65,29.53,8,1,8,0.12
2014-4-27,50.9,39.9,29.3,31.7,15.8,4.1,87,41,16,29.79,29.62,11,2,11,0.00
2014-4-28,48.6,39.4,33.1,15.6,11.3,5.0,41,32,19,30.24,29.79,11,4,15,0.00
2014-4-29,53.1,41.3,29.3,16.9,9.2,-1.1,47,29,13,30.38,30.24,15,4,15,0.00
2014-4-30,62.4,47.6,33.1,18.0,8.0,3.7,33,21,11,30.38,30.21,9,4,9,0.00
2014-5-1,72.0,55.4,40.3,21.6,14.0,8.1,32,21,10,30.21,30.00,10,3,10,0.00
2014-5-2,72.5,58.3,42.6,32.6,19.6,8.5,66,25,9,30.00,29.88,11,3,11,0.00
2014-5-3,49.3,42.8,34.5,36.1,29.4,24.2,79,61,39,29.88,29.73,9,2,9,0.00
2014-5-4,57.4,45.4,33.4,39.8,29.1,20.6,86,57,27,29.82,29.67,10,2,10,0.08
2014-5-5,56.3,45.7,35.8,36.7,25.8,19.2,74,47,28,29.82,29.70,10,3,10,0.00
2014-5-6,50.9,40.4,31.6,24.5,20.0,16.4,60,45,27,29.91,29.76,10,3,12,0.00
2014-5-7,50.0,37.1,29.7,23.9,18.0,14.1,77,48,27,29.91,29.82,8,2,8,0.00
2014-5-8,59.7,43.8,27.9,24.1,17.4,7.7,77,40,14,29.85,29.70,9,3,9,0.00
2014-5-9,57.0,45.5,38.1,37.0,20.2,10.6,73,38,17,29.82,29.62,10,3,10,0.08
2014-5-10,49.1,40.5,32.0,27.5,18.8,14.9,60,42,27,30.03,29.76,10,2,10,0.04
2014-5-11,37.8,33.1,30.4,28.5,22.8,16.0,87,67,42,30.24,30.03,8,2,9,0.00
2014-5-12,53.1,39.1,24.8,27.2,11.5,-1.6,87,40,13,30.29,30.24,9,4,9,0.04
2014-5-13,62.4,47.2,33.1,19.6,9.3,2.0,41,23,11,30.32,30.24,9,3,9,0.00
2014-5-14,66.2,52.0,35.8,21.6,14.2,6.7,40,24,10,30.27,30.12,9,3,9,0.00
2014-5-15,73.6,60.1,46.2,32.4,20.6,6.7,51,25,8,30.12,30.00,10,3,11,0.00
2014-5-16,61.3,51.3,43.0,41.3,31.5,25.1,88,49,27,30.12,29.97,9,2,9,0.00
2014-5-17,68.9,53.0,40.5,44.8,36.0,26.9,94,59,23,30.00,29.73,10,2,10,0.00
2014-5-18,58.8,48.7,42.6,42.8,34.3,27.3,82,59,35,29.79,29.67,13,2,13,0.08
2014-5-19,60.6,50.8,43.0,30.9,24.4,19.4,62,37,22,29.94,29.76,13,3,13,0.00
2014-5-20,66.9,53.0,38.8,28.8,19.3,6.0,54,31,10,29.97,29.91,9,3,9,0.00
2014-5-21,73.0,57.6,40.3,31.3,19.5,6.0,57,27,9,30.00,29.94,9,3,9,0.00
2014-5-22,75.9,61.6,45.7,29.9,22.2,13.7,45,24,10,30.06,30.00,9,3,9,0.00
2014-5-23,80.4,65.7,51.8,30.3,21.0,12.1,33,20,10,30.06,29.88,13,3,13,0.00
2014-5-24,69.6,60.9,50.5,46.2,30.6,20.6,65,33,23,30.00,29.94,9,3,9,0.04
2014-5-25,73.4,59.7,45.1,35.1,31.0,21.2,64,37,17,30.00,29.88,8,3,10,0.00
2014-5-26,74.3,60.5,48.9,32.3,28.3,23.2,47,31,16,30.03,29.88,10,3,12,0.00
2014-5-27,72.7,57.4,44.8,41.8,28.5,14.4,64,37,11,30.03,29.91,8,3,9,0.00
2014-5-28,73.0,59.0,46.8,42.6,36.5,28.6,77,46,22,29.91,29.76,12,3,12,0.00
2014-5-29,68.4,54.4,42.3,28.6,14.3,2.7,39,23,10,30.06,29.88,13,3,13,0.00
2014-5-30,73.9,57.4,40.3,23.4,12.8,4.6,34,20,8,30.06,29.88,10,3,10,0.00
2014-5-31,71.2,56.8,47.7,33.5,25.3,7.7,50,31,14,29.91,29.82,13,3,13,0.00
2014-6-1,67.1,54.0,45.9,37.2,31.4,25.6,71,44,23,30.00,29.91,9,3,9,0.00
2014-6-2,75.4,57.8,41.4,35.1,28.0,14.2,75,38,10,30.00,29.85,9,3,9,0.00
2014-6-3,75.4,60.9,46.4,34.1,25.5,14.4,56,29,10,29.94,29.79,11,3,13,0.00
2014-6-4,74.1,59.0,44.1,31.1,21.3,6.7,55,27,8,29.94,29.91,10,3,10,0.00
2014-6-5,71.4,55.6,40.3,28.8,22.4,8.7,63,29,12,30.03,29.88,10,4,11,0.00
2014-6-6,66.2,50.6,36.9,31.6,22.7,6.9,78,41,10,30.03,29.91,10,3,10,0.00
2014-6-7,67.8,53.9,38.5,30.1,18.4,5.5,61,30,10,30.03,29.97,8,3,8,0.00
2014-6-8,75.9,59.3,45.3,25.0,14.5,5.6,34,19,8,30.06,30.00,9,3,9,0.00
2014-6-9,77.9,64.1,47.8,25.5,14.3,5.6,31,16,8,30.00,29.82,14,4,14,0.00
2014-6-10,74.8,60.9,45.3,28.1,15.3,6.7,40,19,8,29.97,29.79,13,3,15,0.00
2014-6-11,64.9,52.8,39.6,32.7,27.7,20.7,72,41,23,30.03,29.94,11,3,11,0.00
2014-6-12,80.4,57.5,39.6,35.3,27.5,14.9,69,37,10,30.03,29.70,15,3,16,0.00
2014-6-13,63.9,55.4,48.6,24.1,18.2,11.5,37,23,17,29.85,29.73,9,2,9,0.00
2014-6-14,54.9,48.6,44.4,31.2,24.8,21.2,53,39,29,29.85,29.79,8,2,8,0.00
2014-6-15,68.4,52.8,38.8,43.6,27.6,18.5,87,42,17,29.85,29.67,14,2,14,0.31
2014-6-16,61.7,49.3,41.9,47.7,40.3,30.1,92,74,34,29.76,29.65,7,2,8,0.55
2014-6-17,59.4,48.2,40.8,44.7,33.2,20.4,97,62,25,29.85,29.70,10,2,10,0.16
2014-6-18,53.2,44.8,37.4,41.0,27.9,21.0,83,53,29,29.88,29.76,10,2,10,0.12
2014-6-19,68.7,56.9,45.7,40.9,31.2,22.8,82,40,20,29.94,29.82,9,2,10,0.12
2014-6-20,73.0,58.1,49.1,50.5,36.5,28.0,91,48,22,30.00,29.85,17,3,17,0.47
2014-6-21,73.9,59.8,45.5,45.1,28.5,9.0,85,38,9,30.00,29.94,8,2,9,0.00
2014-6-22,70.5,56.2,45.5,44.3,33.4,26.4,78,44,23,30.09,30.00,11,3,13,0.00
2014-6-23,74.3,58.8,45.1,43.6,36.4,23.4,83,49,16,30.09,30.00,9,3,9,0.00
2014-6-24,74.5,60.2,47.8,49.0,37.8,32.2,78,46,22,30.06,29.91,13,3,13,0.04
2014-6-25,73.4,62.1,51.4,46.4,39.6,30.8,80,48,22,29.97,29.88,10,2,11,0.00
2014-6-26,66.0,59.3,52.7,54.6,47.5,38.2,87,66,43,29.79,29.73,8,1,8,0.08
2014-6-27,71.4,58.9,50.9,45.0,37.5,29.0,73,48,22,29.85,29.73,14,3,15,0.04
2014-6-28,67.3,57.3,48.0,40.3,30.5,23.2,70,38,22,29.94,29.79,10,4,10,0.00
2014-6-29,71.1,58.5,48.7,31.2,24.6,13.1,40,28,12,30.03,29.88,13,3,13,0.00
2014-6-30,70.9,59.1,47.8,32.3,26.8,21.7,46,30,17,30.15,30.00,8,2,8,0.00
2014-7-1,78.3,62.4,46.6,36.6,28.5,9.7,63,33,9,30.15,30.09,8,3,8,0.00
2014-7-2,88.2,68.4,50.0,36.7,29.5,14.9,50,27,8,30.09,30.00,9,2,9,0.04
2014-7-3,85.8,72.8,59.2,45.4,34.2,22.7,53,26,11,30.06,29.97,10,3,10,0.00
2014-7-4,83.3,68.6,57.9,55.3,38.8,28.2,55,35,14,30.03,29.97,8,2,9,0.04
2014-7-5,87.3,72.0,58.6,47.2,30.1,8.8,46,26,6,30.15,29.97,13,3,13,0.00
2014-7-6,89.6,74.6,57.7,31.3,19.3,8.6,28,14,5,30.18,30.09,12,3,12,0.00
2014-7-7,80.2,68.3,58.6,43.4,32.1,13.5,53,28,11,30.21,30.09,8,2,8,0.00
2014-7-8,88.3,69.7,52.5,39.4,33.1,16.6,60,31,8,30.18,30.03,8,3,8,0.00
2014-7-9,87.3,73.0,57.4,39.7,30.9,16.6,46,25,8,30.06,29.94,12,3,12,0.00
2014-7-10,91.0,77.4,57.4,39.9,23.7,8.6,45,17,5,30.00,29.91,8,2,8,0.00
2014-7-11,79.3,66.7,58.3,45.2,35.4,11.1,57,34,12,30.15,29.97,9,2,9,0.00
2014-7-12,88.0,71.8,55.9,45.9,33.4,16.6,68,32,8,30.21,30.12,8,3,8,0.00
2014-7-13,91.0,74.3,59.0,36.1,25.4,9.6,35,19,5,30.24,30.18,8,3,8,0.00
2014-7-14,85.5,72.2,58.5,40.8,30.8,16.6,38,23,8,30.24,30.06,9,3,9,0.00
2014-7-15,70.3,62.0,57.0,58.4,50.3,37.2,94,69,33,30.18,30.06,8,2,9,0.31
2014-7-16,82.8,71.0,51.1,49.9,40.4,30.3,87,38,16,30.06,30.00,8,2,8,0.31
2014-7-17,91.0,74.0,58.3,42.9,27.4,8.6,45,23,5,30.00,29.85,9,2,9,0.00
2014-7-18,76.8,66.0,51.8,39.3,28.8,8.5,59,29,9,29.97,29.91,8,2,8,0.00
2014-7-19,85.8,72.1,57.7,30.2,21.4,16.2,31,16,8,29.97,29.88,11,3,11,0.00
2014-7-20,89.4,74.9,60.4,31.6,21.5,8.6,32,16,5,29.91,29.85,11,4,11,0.00
2014-7-21,80.1,66.0,57.0,57.5,42.9,29.4,89,46,20,30.09,29.85,9,2,10,0.28
2014-7-22,81.7,67.3,57.2,55.0,43.7,36.5,81,45,22,30.18,30.09,9,3,9,0.04
2014-7-23,90.9,69.4,55.9,52.5,40.5,17.1,82,44,7,30.18,29.91,11,3,12,0.08
2014-7-24,72.9,64.0,54.9,42.9,29.3,6.7,58,31,9,30.03,29.91,14,4,14,0.00
2014-7-25,77.4,62.3,42.8,29.1,18.2,8.1,52,22,8,30.06,29.94,13,3,13,0.00
2014-7-26,81.7,66.8,50.7,32.0,17.4,6.8,40,18,7,30.18,30.06,12,3,12,0.00
2014-7-27,88.0,69.4,51.1,30.7,17.9,8.6,38,17,5,30.21,30.18,10,3,10,0.00
2014-7-28,90.5,72.8,57.0,32.9,20.6,8.6,30,16,5,30.18,30.15,11,3,11,0.00
2014-7-29,88.5,71.5,60.1,50.4,28.5,16.6,63,23,8,30.15,30.12,10,3,10,0.04
2014-7-30,86.2,71.3,58.1,37.8,28.1,14.9,39,23,9,30.18,30.12,10,3,10,0.04
2014-7-31,89.1,72.1,57.2,36.4,22.8,8.6,37,19,5,30.15,30.12,11,4,11,0.04
2014-8-1,90.0,73.9,59.7,33.8,19.1,8.6,33,15,5,30.15,30.12,10,4,12,0.00
2014-8-2,81.9,68.4,57.6,40.2,33.5,16.3,49,29,10,30.15,30.09,15,3,15,0.00
2014-8-3,86.2,70.7,55.4,38.0,29.7,14.9,47,25,8,30.12,30.03,9,2,9,0.00
2014-8-4,76.3,67.0,57.7,45.5,38.9,34.7,48,36,25,30.09,30.03,9,2,9,0.00
2014-8-5,82.8,68.1,54.0,49.2,34.9,14.9,80,37,9,30.09,30.00,9,2,9,0.00
2014-8-6,88.2,72.2,57.2,39.1,27.3,8.6,45,23,5,30.06,30.00,10,3,11,0.00
2014-8-7,87.3,72.2,57.9,35.8,23.0,8.6,39,20,6,30.03,29.97,9,3,9,0.00
2014-8-8,85.3,69.5,59.4,49.6,27.0,15.1,70,24,8,30.06,29.97,12,3,13,0.00
2014-8-9,79.7,65.8,51.3,43.0,33.6,20.0,62,34,12,30.15,30.06,8,2,9,0.00
2014-8-10,88.3,70.3,53.6,34.8,22.1,6.7,42,21,5,30.18,30.09,10,3,10,0.00
2014-8-11,91.4,73.7,57.4,29.1,15.1,6.1,26,12,4,30.15,30.09,10,3,10,0.00
2014-8-12,91.8,73.7,60.4,46.3,25.2,8.9,42,18,7,30.12,30.00,15,3,17,0.00
2014-8-13,87.4,70.7,57.4,50.3,37.1,16.6,71,35,8,30.12,29.97,10,3,10,0.04
2014-8-14,80.6,66.7,58.1,56.2,47.1,35.4,88,55,21,30.06,29.97,8,2,9,0.04
2014-8-15,78.1,64.7,55.8,53.3,43.4,36.4,82,48,28,30.12,29.97,20,2,20,0.16
2014-8-16,75.0,63.4,52.2,49.2,38.8,27.5,82,45,18,30.09,30.03,10,3,10,0.04
2014-8-17,81.1,67.3,53.1,39.3,29.8,14.9,57,29,9,30.12,30.06,11,3,11,0.00
2014-8-18,85.5,68.7,54.1,39.7,27.3,8.5,53,26,6,30.09,29.91,11,4,11,0.00
2014-8-19,86.2,70.6,57.7,33.7,23.0,8.8,35,19,6,29.91,29.76,11,4,13,0.00
2014-8-20,74.8,64.0,55.6,47.6,33.8,23.1,68,34,16,29.97,29.82,11,2,13,0.08
2014-8-21,67.5,56.8,51.6,50.6,42.4,34.4,89,61,31,30.09,29.97,8,2,9,0.04
2014-8-22,61.3,54.5,48.7,53.1,45.8,33.9,97,76,37,30.06,29.97,8,2,9,0.28
2014-8-23,48.7,46.0,44.2,47.9,44.9,42.1,98,96,85,30.06,30.00,10,2,10,1.97
2014-8-24,53.8,47.3,42.8,47.2,41.1,30.5,98,81,41,30.12,30.03,6,0,6,0.28
2014-8-25,65.1,51.9,39.4,39.3,35.6,30.8,89,58,28,30.09,30.00,8,3,9,0.00
2014-8-26,73.6,59.6,45.7,41.2,34.9,23.5,82,44,16,30.09,30.03,8,3,9,0.00
2014-8-27,79.5,65.1,50.2,36.7,29.3,21.3,48,29,12,30.09,30.03,9,3,9,0.00
2014-8-28,81.5,68.0,53.6,39.4,28.8,13.2,50,26,9,30.09,29.97,9,2,9,0.00
2014-8-29,77.4,62.5,46.6,45.6,37.7,28.5,87,46,18,30.12,29.88,10,3,10,0.00
2014-8-30,68.9,61.1,51.3,44.6,33.2,27.6,61,36,23,29.91,29.82,8,3,9,0.00
2014-8-31,65.7,56.0,48.6,38.1,29.7,25.2,61,37,24,29.94,29.85,8,2,11,0.00
2014-9-1,68.2,58.0,45.0,29.6,23.9,16.6,50,28,15,29.97,29.94,10,2,10,0.00
2014-9-2,73.2,59.2,45.9,33.5,26.9,18.5,50,31,14,29.94,29.73,9,2,9,0.00
2014-9-3,63.5,55.5,46.2,30.6,21.8,9.6,42,28,13,30.00,29.65,11,3,11,0.04
2014-9-4,63.3,50.8,41.7,33.5,26.8,22.1,69,42,24,30.09,30.00,9,2,9,0.04
2014-9-5,67.3,53.8,39.0,29.0,24.3,17.2,58,34,15,30.15,30.09,9,3,9,0.00
2014-9-6,72.5,57.0,42.3,29.8,22.6,14.4,43,29,11,30.18,30.03,9,3,9,0.00
2014-9-7,79.3,61.7,45.5,30.0,17.5,5.6,39,21,7,30.03,29.88,11,3,11,0.00
2014-9-8,80.1,62.7,44.8,35.5,16.4,4.1,64,20,7,29.94,29.79,10,2,10,0.00
2014-9-9,48.7,41.7,35.6,33.6,25.1,21.8,72,53,37,30.09,29.94,10,3,11,0.00
2014-9-10,47.5,37.7,34.0,39.2,30.4,24.8,98,76,44,30.27,30.00,10,2,10,0.16
2014-9-11,46.2,39.1,32.0,33.1,26.1,16.7,98,71,32,30.32,30.27,7,1,7,0.12
2014-9-12,62.1,45.0,27.9,24.6,20.6,14.4,77,46,16,30.29,30.00,8,2,8,0.12
2014-9-13,54.7,43.7,32.7,28.9,23.7,15.3,80,50,28,30.12,29.97,8,2,8,0.12
2014-9-14,64.8,47.7,34.9,30.6,26.6,18.0,82,50,18,30.09,29.94,9,3,9,0.12
2014-9-15,74.3,56.4,38.5,30.7,24.9,14.5,66,36,11,30.12,30.03,10,3,10,0.04
2014-9-16,74.7,61.0,47.3,39.2,27.6,17.4,42,29,21,30.06,29.94,7,2,8,0.12
2014-9-17,74.8,62.9,50.9,54.8,33.3,18.5,53,34,13,30.00,29.88,9,3,9,0.04
2014-9-18,73.6,64.7,55.8,42.3,34.6,24.9,47,33,23,29.88,28.82,13,3,18,0.08
2014-9-19,71.8,62.6,53.4,35.3,30.4,25.3,45,31,21,30.09,29.88,8,3,12,0.12
2014-9-20,71.6,60.2,48.7,34.7,30.2,18.6,52,34,14,30.20,30.09,8,3,9,0.12
2014-9-21,75.4,58.9,44.8,39.4,33.3,28.9,70,41,21,30.20,30.03,8,3,8,0.00
2014-9-22,76.3,62.2,51.3,39.3,35.6,32.8,54,38,22,30.03,29.94,8,3,8,0.00
2014-9-23,75.9,59.3,49.6,44.3,36.6,32.8,61,44,22,30.07,30.01,8,3,9,0.00
2014-9-24,85.8,69.9,52.9,41.2,28.7,9.6,63,29,7,30.04,29.92,13,4,13,0.00
2014-9-25,86.4,74.0,59.4,32.3,18.9,8.6,27,14,6,29.98,29.83,14,4,14,0.00
2014-9-26,71.8,59.7,52.2,45.4,31.7,7.4,68,38,9,30.04,29.83,8,2,8,0.00
2014-9-27,52.5,48.6,46.4,47.7,45.6,33.9,98,90,51,30.16,30.01,8,1,8,0.00
2014-9-28,50.5,47.7,46.2,47.5,42.6,34.8,98,83,55,30.16,30.01,7,1,7,0.00
2014-9-29,62.1,51.6,43.5,45.0,39.6,32.1,94,67,34,30.04,29.77,9,1,9,0.00
2014-9-30,57.6,50.4,42.1,46.1,30.2,22.4,84,47,29,29.89,29.74,10,1,10,0.00
2014-10-1,53.2,45.2,39.4,34.0,25.2,15.9,76,47,27,30.02,29.86,8,2,9,0.00
2014-10-2,45.5,36.9,28.6,33.2,29.3,25.7,94,76,51,30.48,30.00,15,2,16,0.10
2014-10-3,57.9,39.3,25.1,37.7,26.4,15.8,91,66,20,30.56,30.24,11,2,11,0.03
2014-10-4,68.9,58.6,41.2,41.0,34.9,24.2,54,41,32,30.24,29.98,11,2,14,0.00
2014-10-5,68.3,59.7,51.5,43.6,39.6,35.1,63,48,31,30.14,30.01,11,2,14,0.00
2014-10-6,72.5,62.7,57.1,45.3,39.1,33.2,51,42,35,30.04,29.88,11,3,16,0.00
2014-10-7,74.9,64.2,54.1,47.8,42.9,40.3,60,46,30,30.01,29.91,10,3,14,0.00
2014-10-8,64.6,55.2,46.9,46.8,41.6,37.1,74,60,40,30.12,30.00,6,2,8,0.00
2014-10-9,60.4,50.5,43.3,45.1,41.5,38.7,88,72,53,30.22,30.12,6,1,6,0.00
2014-10-10,65.8,51.2,39.0,46.2,41.4,37.3,95,72,43,30.22,30.04,5,2,10,0.00
2014-10-11,64.4,54.7,44.5,44.0,34.5,27.8,89,48,33,30.05,29.75,12,4,16,0.01
2014-10-12,49.9,45.1,42.1,37.2,33.1,28.1,78,63,47,30.30,29.86,12,2,12,0.00
2014-10-13,58.3,49.6,38.3,36.1,31.2,27.6,68,50,36,30.29,30.01,10,3,16,0.00
2014-10-14,71.0,58.5,44.9,37.6,32.1,26.8,62,38,23,30.01,29.74,14,4,18,0.00
2014-10-15,70.2,54.9,45.1,42.3,31.6,25.0,65,43,20,29.94,29.50,23,3,23,0.02
2014-10-16,54.3,46.4,38.0,33.8,29.2,26.7,66,51,37,30.17,29.93,16,2,16,0.00
2014-10-17,59.2,43.6,32.1,34.1,29.7,26.2,79,60,35,30.19,29.95,7,2,8,0.00
2014-10-18,66.4,50.8,41.2,38.1,33.2,21.2,68,51,33,30.00,29.92,10,2,12,0.00
2014-10-19,66.0,51.7,41.4,41.7,37.0,30.0,77,59,38,29.99,29.86,8,2,8,0.00
2014-10-20,74.7,57.4,42.3,39.4,32.9,28.4,59,42,22,29.88,29.60,15,3,15,0.00
2014-10-21,64.2,49.4,40.3,44.1,36.6,31.5,89,64,32,29.95,29.49,16,2,16,0.37
2014-10-22,56.1,47.4,36.5,35.1,31.4,29.3,77,55,38,30.08,29.91,17,5,17,0.00
2014-10-23,61.0,53.5,45.3,41.5,33.9,29.1,79,48,36,29.92,29.79,24,5,24,0.00
2014-10-24,52.9,47.1,39.7,41.6,38.3,35.2,88,72,58,30.07,29.88,13,2,14,0.01
2014-10-25,61.6,45.6,34.6,46.3,39.0,33.0,96,79,35,30.06,29.68,16,2,16,0.00
2014-10-26,57.3,45.7,38.2,37.5,30.7,24.9,74,57,41,29.89,29.64,16,4,17,0.00
2014-10-27,44.2,39.3,35.3,26.2,24.4,21.8,62,55,43,30.20,29.88,16,2,16,0.00
2014-10-28,51.9,39.6,25.5,30.6,23.8,18.5,76,55,35,30.25,30.09,10,2,10,0.00
2014-10-29,54.6,47.5,38.4,36.3,32.6,23.9,73,57,43,30.25,30.03,17,3,18,0.00
2014-10-30,52.4,43.0,36.2,38.0,33.6,29.7,82,70,52,30.30,30.10,8,2,8,0.00
2014-10-31,57.3,45.0,36.3,41.5,34.2,30.1,80,66,48,30.10,29.77,5,1,7,0.00
2014-11-1,55.6,44.2,35.1,39.5,34.2,28.5,95,69,47,29.77,29.50,8,1,8,0.20
2014-11-2,40.3,35.7,32.4,35.0,29.9,21.5,97,81,58,30.15,29.64,14,1,14,0.04
2014-11-3,43.3,38.7,32.9,30.8,26.5,21.5,70,61,53,30.27,30.14,13,2,13,0.00
2014-11-4,50.3,45.8,40.2,35.5,31.7,27.7,64,58,49,30.24,29.96,19,5,19,0.00
2014-11-5,50.6,46.3,42.3,36.3,33.7,31.1,77,62,49,30.36,30.15,13,2,13,0.00
2014-11-6,63.0,53.5,45.3,40.5,34.1,31.0,70,49,31,30.31,29.85,21,4,21,0.00
2014-11-7,51.4,44.0,33.2,41.2,31.2,27.0,80,61,45,30.35,29.83,20,2,20,0.00
2014-11-8,55.7,43.1,32.0,33.1,27.0,22.4,81,57,29,30.34,29.98,18,2,18,0.00
2014-11-9,58.7,40.9,11.2,40.2,27.1,6.5,89,61,33,29.98,29.42,13,2,13,0.00
2014-11-10,19.9,10.7,2.2,12.7,6.2,-3.5,87,81,70,30.64,29.84,9,2,9,0.00
2014-11-11,4.8,0.0,-7.5,-3.4,-6.0,-12.3,84,75,61,30.66,30.44,7,1,7,0.00
2014-11-12,8.6,0.3,-6.3,-0.6,-5.8,-11.7,81,75,63,30.61,30.44,6,1,6,0.00
2014-11-13,9.3,-0.8,-9.6,-1.1,-7.0,-14.6,82,75,62,30.44,30.03,3,1,6,0.00
2014-11-14,12.3,5.8,-3.7,3.6,-1.5,-8.3,85,72,52,30.13,29.97,5,1,5,0.00
2014-11-15,15.6,6.3,-2.2,1.6,-1.4,-6.9,82,71,50,30.28,30.13,7,2,7,0.00
2014-11-16,23.2,14.8,6.6,9.6,6.0,-0.0,80,68,54,30.36,30.25,7,1,7,0.00
2014-11-17,27.6,16.4,6.7,13.0,8.7,2.8,86,72,51,30.28,30.10,5,1,5,0.01
2014-11-18,30.3,23.5,15.9,20.7,16.5,11.5,84,74,63,30.10,29.93,7,1,8,0.00
2014-11-19,33.7,23.9,16.0,21.3,17.1,12.1,88,75,60,29.96,29.78,5,1,5,0.00
2014-11-20,43.7,34.5,23.5,28.0,21.8,17.0,77,61,40,29.82,29.64,9,1,9,0.05
2014-11-21,45.4,40.1,30.8,27.6,25.1,23.1,75,55,46,29.66,29.21,17,4,18,0.01
2014-11-22,44.7,38.9,31.4,34.7,24.5,14.8,80,57,37,29.45,29.05,24,5,24,0.00
2014-11-23,36.7,32.9,29.4,25.9,20.3,17.0,84,60,47,29.75,29.44,20,3,20,0.00
2014-11-24,36.0,33.0,29.2,23.5,18.9,14.7,71,56,44,30.00,29.66,16,3,16,0.00
2014-11-25,37.4,32.7,28.0,33.4,28.3,16.7,95,85,45,29.98,29.65,15,1,16,0.05
2014-11-26,38.4,30.8,27.6,36.2,29.4,26.3,97,95,89,30.00,29.90,9,0,9,0.13
2014-11-27,55.9,48.8,29.9,36.1,32.6,27.8,94,55,42,29.90,29.49,25,6,25,0.34
2014-11-28,51.1,48.5,35.5,33.7,29.7,21.4,63,48,37,29.50,29.11,26,7,29,0.00
2014-11-29,33.0,-1.0,-8.6,21.5,-5.7,-13.8,84,80,64,30.35,29.26,7,1,7,0.00
2014-11-30,6.0,-2.5,-9.0,-0.6,-7.4,-13.7,86,79,71,30.73,30.35,4,0,18,0.00
2014-12-1,26.7,8.2,-4.7,22.3,3.7,-8.8,94,82,67,30.64,30.28,6,1,8,0.00
2014-12-2,35.0,25.1,17.3,21.8,15.2,10.1,84,67,39,30.31,30.20,6,2,9,0.00
2014-12-3,29.8,21.7,15.2,20.4,13.7,9.3,81,71,55,30.20,30.03,4,1,5,0.01
2014-12-4,39.6,31.1,22.6,36.3,27.8,15.8,94,88,72,30.09,29.96,9,0,9,0.15
2014-12-5,46.4,35.7,31.5,36.3,31.8,27.9,94,86,62,30.23,30.09,6,1,6,0.14
2014-12-6,46.1,37.4,30.7,33.9,29.8,26.4,85,75,54,30.22,30.07,7,2,11,0.02
2014-12-7,46.3,39.1,30.0,30.0,26.3,21.2,70,60,44,30.31,30.14,7,2,13,0.00
2014-12-8,44.4,34.2,28.7,29.3,24.9,20.7,82,69,52,30.30,30.21,13,2,15,0.00
2014-12-9,53.8,44.6,33.5,33.4,30.1,26.2,76,57,41,30.22,30.00,16,4,16,0.00
2014-12-10,48.0,41.3,35.5,34.1,31.4,28.0,81,68,55,30.03,29.75,9,2,9,0.00
2014-12-11,53.5,48.7,41.0,29.9,26.1,23.9,61,41,34,29.76,29.62,17,4,17,0.00
2014-12-12,59.2,52.6,43.3,30.3,27.5,23.7,57,39,26,29.65,29.55,11,5,17,0.00
2014-12-13,53.2,37.6,29.6,32.6,30.1,27.4,96,78,37,30.09,29.57,8,2,10,0.01
2014-12-14,29.6,27.1,24.3,28.1,25.4,22.6,94,93,91,30.35,30.09,2,1,6,0.00
2014-12-15,29.8,20.6,14.9,22.7,17.2,11.8,92,86,73,30.39,30.28,8,1,8,0.04
2014-12-16,26.9,20.5,12.9,22.9,17.7,9.5,94,89,80,30.29,30.15,5,1,5,0.00
2014-12-17,34.9,26.9,22.1,29.6,24.2,19.4,95,90,75,30.16,30.03,11,1,12,0.00
2014-12-18,34.2,27.6,22.2,26.7,23.5,19.6,93,85,69,30.15,30.08,11,1,12,0.00
2014-12-19,41.9,36.4,30.7,32.5,27.7,24.5,90,71,61,30.09,29.91,16,4,16,0.16
2014-12-20,40.1,35.5,29.8,28.9,24.4,21.4,72,64,57,30.00,29.63,17,4,20,0.01
2014-12-21,41.1,38.1,34.2,34.1,27.7,20.9,90,66,56,29.82,29.46,29,5,29,0.09
2014-12-22,36.2,33.1,30.4,28.3,22.8,20.6,82,66,59,30.29,29.79,10,2,14,0.00
2014-12-23,39.1,32.1,23.0,26.0,18.3,14.1,72,57,42,30.39,30.00,16,4,21,0.00
2014-12-24,44.6,36.7,27.0,30.2,27.2,24.7,95,70,50,30.00,29.42,15,4,21,0.00
2014-12-25,27.0,22.2,16.7,25.3,18.5,11.9,94,86,76,30.15,29.57,6,2,9,0.00
2014-12-26,23.7,19.1,13.6,18.3,15.5,9.7,91,85,75,30.35,30.15,3,1,5,0.00
2014-12-27,28.5,23.9,16.0,19.1,15.1,10.7,81,69,59,30.35,29.98,8,4,12,0.00
2014-12-28,27.7,17.3,7.0,22.3,13.4,4.2,92,85,68,30.54,29.95,9,2,12,0.00
2014-12-29,7.0,-0.2,-10.5,3.9,-4.3,-14.5,87,82,78,31.14,30.54,2,1,3,0.00
2014-12-30,-0.2,-8.7,-16.9,-7.1,-14.3,-22.2,82,76,66,31.22,31.06,5,2,5,0.00
2014-12-31,10.7,2.5,-3.2,3.4,-2.3,-7.3,88,80,66,31.07,30.63,3,1,5,0.00
2015-1-1,19.7,8.7,2.1,10.3,4.2,-1.5,90,82,63,30.63,30.41,3,1,4,0.00
2015-1-2,28.7,18.0,9.3,27.7,14.7,6.8,96,87,71,30.41,30.06,3,1,4,0.00